createdAt,value
2022-08-17T00:00:34.569Z,19.71
2022-08-17T00:02:30.636Z,19.49
2022-08-17T00:04:35.629Z,19.36
2022-08-17T00:06:35.663Z,19.28
2022-08-17T00:08:37.465Z,19.45
2022-08-17T00:10:36.061Z,19.47
2022-08-17T00:12:51.540Z,19.43
2022-08-17T00:14:50.449Z,19.53
2022-08-17T00:16:56.822Z,19.51
2022-08-17T00:19:06.167Z,19.50
2022-08-17T00:21:10.374Z,19.49
2022-08-17T00:23:13.177Z,19.29
2022-08-17T00:25:16.333Z,19.18
2022-08-17T00:27:14.722Z,19.19
2022-08-17T00:29:19.334Z,19.36
2022-08-17T00:31:18.333Z,19.44
2022-08-17T00:33:19.310Z,19.51
2022-08-17T00:35:23.352Z,19.49
2022-08-17T00:37:22.763Z,19.48
2022-08-17T00:39:20.882Z,19.29
2022-08-17T00:41:24.295Z,19.18
2022-08-17T00:43:27.596Z,18.98
2022-08-17T00:45:25.866Z,18.85
2022-08-17T00:47:24.115Z,18.79
2022-08-17T00:49:23.707Z,18.84
2022-08-17T00:51:30.430Z,18.89
2022-08-17T00:53:32.924Z,19.12
2022-08-17T00:55:31.162Z,19.14
2022-08-17T00:57:34.169Z,19.15
2022-08-17T00:59:38.419Z,19.12
2022-08-17T01:01:38.531Z,19.05
2022-08-17T01:03:39.903Z,18.96
2022-08-17T01:05:42.527Z,18.83
2022-08-17T01:07:41.343Z,18.70
2022-08-17T01:09:41.693Z,18.72
2022-08-17T01:11:40.678Z,18.85
2022-08-17T01:13:44.412Z,18.90
2022-08-17T01:15:47.602Z,19.01
2022-08-17T01:17:47.192Z,19.01
2022-08-17T01:19:45.686Z,19.02
2022-08-17T01:21:51.632Z,19.06
2022-08-17T01:23:51.334Z,19.02
2022-08-17T01:25:51.435Z,18.88
2022-08-17T01:27:50.371Z,18.79
2022-08-17T01:29:52.151Z,18.73
2022-08-17T01:31:54.624Z,18.73
2022-08-17T01:33:53.451Z,18.68
2022-08-17T01:35:51.921Z,18.64
2022-08-17T01:37:50.424Z,18.65
2022-08-17T01:39:54.959Z,18.61
2022-08-17T01:41:57.599Z,18.59
2022-08-17T01:44:01.142Z,18.56
2022-08-17T01:46:03.856Z,18.53
2022-08-17T01:48:02.476Z,18.60
2022-08-17T01:50:07.630Z,18.31
2022-08-17T01:52:08.868Z,18.12
2022-08-17T01:54:11.317Z,18.22
2022-08-17T01:56:13.683Z,18.28
2022-08-17T01:58:12.550Z,18.39
2022-08-17T02:00:11.680Z,18.38
2022-08-17T02:02:10.334Z,18.37
2022-08-17T02:04:09.563Z,18.40
2022-08-17T02:06:27.064Z,18.34
2022-08-17T02:08:39.164Z,18.32
2022-08-17T02:10:46.689Z,18.29
2022-08-17T02:12:46.489Z,18.25
2022-08-17T02:14:44.873Z,18.04
2022-08-17T02:16:43.643Z,18.09
2022-08-17T02:18:42.209Z,18.18
2022-08-17T02:20:42.947Z,18.21
2022-08-17T02:22:45.535Z,18.24
2022-08-17T02:24:59.608Z,18.29
2022-08-17T02:26:59.648Z,18.27
2022-08-17T02:28:59.262Z,18.25
2022-08-17T02:31:01.463Z,18.15
2022-08-17T02:33:04.039Z,18.30
2022-08-17T02:35:06.062Z,18.03
2022-08-17T02:37:04.378Z,17.92
2022-08-17T02:39:03.403Z,17.90
2022-08-17T02:41:01.854Z,17.96
2022-08-17T02:43:00.271Z,18.05
2022-08-17T02:45:03.422Z,18.06
2022-08-17T02:47:01.987Z,18.05
2022-08-17T02:49:00.608Z,18.07
2022-08-17T02:50:58.717Z,18.05
2022-08-17T02:53:01.856Z,17.99
2022-08-17T02:55:00.994Z,17.90
2022-08-17T02:56:59.265Z,17.72
2022-08-17T02:58:57.513Z,17.74
2022-08-17T03:00:57.141Z,17.83
2022-08-17T03:02:57.271Z,17.79
2022-08-17T03:04:55.604Z,17.82
2022-08-17T03:06:53.901Z,17.93
2022-08-17T03:08:52.494Z,18.01
2022-08-17T03:10:51.347Z,17.96
2022-08-17T03:12:50.420Z,17.93
2022-08-17T03:14:49.055Z,17.89
2022-08-17T03:16:48.688Z,17.89
2022-08-17T03:18:46.928Z,17.81
2022-08-17T03:20:45.415Z,17.68
2022-08-17T03:22:52.996Z,17.56
2022-08-17T03:24:52.009Z,17.42
2022-08-17T03:26:51.610Z,17.49
2022-08-17T03:28:49.777Z,17.56
2022-08-17T03:30:48.135Z,17.55
2022-08-17T03:32:50.868Z,17.65
2022-08-17T03:34:49.149Z,17.69
2022-08-17T03:36:47.462Z,17.63
2022-08-17T03:38:45.644Z,17.68
2022-08-17T03:40:57.225Z,17.53
2022-08-17T03:42:58.013Z,17.42
2022-08-17T03:44:58.443Z,17.52
2022-08-17T03:47:14.124Z,17.70
2022-08-17T03:49:31.155Z,17.74
2022-08-17T03:51:46.767Z,17.64
2022-08-17T03:54:07.700Z,17.71
2022-08-17T03:56:24.156Z,17.91
2022-08-17T03:58:22.776Z,18.20
2022-08-17T04:00:21.222Z,18.47
2022-08-17T04:02:24.899Z,18.82
2022-08-17T04:04:27.628Z,19.09
2022-08-17T04:06:26.092Z,19.33
2022-08-17T04:08:24.424Z,19.68
2022-08-17T04:10:26.398Z,19.95
2022-08-17T04:12:25.848Z,20.19
2022-08-17T04:14:24.507Z,20.26
2022-08-17T04:16:22.814Z,20.37
2022-08-17T04:18:21.219Z,20.33
2022-08-17T04:20:22.494Z,20.48
2022-08-17T04:22:32.204Z,20.67
2022-08-17T04:24:32.115Z,20.92
2022-08-17T04:26:54.209Z,20.89
2022-08-17T04:28:48.954Z,21.11
2022-08-17T04:30:48.567Z,21.31
2022-08-17T04:33:04.697Z,21.37
2022-08-17T04:35:05.839Z,21.77
2022-08-17T04:37:05.798Z,22.35
2022-08-17T04:39:04.125Z,22.88
2022-08-17T04:41:20.829Z,23.36
2022-08-17T04:43:21.747Z,23.30
2022-08-17T04:45:19.993Z,23.46
2022-08-17T04:47:20.737Z,24.11
2022-08-17T04:49:18.964Z,24.56
2022-08-17T04:51:19.323Z,24.66
2022-08-17T04:53:21.764Z,25.18
2022-08-17T04:55:20.137Z,25.33
2022-08-17T04:57:18.442Z,25.40
2022-08-17T04:59:19.061Z,25.02
2022-08-17T05:01:23.062Z,25.03
2022-08-17T05:03:22.462Z,25.19
2022-08-17T05:05:20.949Z,25.12
2022-08-17T05:07:23.444Z,24.83
2022-08-17T05:09:24.539Z,24.82
2022-08-17T05:11:23.527Z,24.35
2022-08-17T05:13:26.973Z,24.06
2022-08-17T05:15:25.339Z,23.47
2022-08-17T05:17:23.543Z,23.67
2022-08-17T05:19:21.881Z,23.86
2022-08-17T05:21:22.962Z,23.95
2022-08-17T05:23:23.088Z,24.13
2022-08-17T05:25:25.731Z,24.34
2022-08-17T05:27:24.174Z,24.14
2022-08-17T05:29:35.605Z,24.27
2022-08-17T05:31:34.031Z,24.33
2022-08-17T05:33:44.318Z,24.32
2022-08-17T05:35:47.220Z,24.51
2022-08-17T05:37:45.604Z,24.41
2022-08-17T05:39:43.829Z,24.26
2022-08-17T05:41:43.397Z,24.37
2022-08-17T05:43:43.471Z,24.39
2022-08-17T05:45:55.932Z,24.22
2022-08-17T05:47:54.635Z,24.06
2022-08-17T05:49:53.845Z,23.87
2022-08-17T05:52:20.041Z,24.03
2022-08-17T05:54:30.225Z,24.33
2022-08-17T05:56:48.022Z,24.12
2022-08-17T05:59:00.311Z,24.14
2022-08-17T06:01:04.126Z,24.18
2022-08-17T06:03:23.641Z,24.13
2022-08-17T06:05:39.980Z,24.07
2022-08-17T06:07:47.015Z,24.46
2022-08-17T06:09:54.716Z,24.16
2022-08-17T06:11:58.779Z,24.18
2022-08-17T06:14:20.878Z,24.40
2022-08-17T06:16:26.000Z,24.76
2022-08-17T06:18:49.347Z,24.85
2022-08-17T06:20:52.111Z,24.76
2022-08-17T06:22:53.064Z,24.14
2022-08-17T06:24:56.798Z,24.65
2022-08-17T06:26:56.515Z,25.36
2022-08-17T06:28:59.721Z,25.95
2022-08-17T06:31:14.132Z,26.41
2022-08-17T06:33:20.695Z,26.45
2022-08-17T06:35:31.797Z,26.15
2022-08-17T06:37:53.979Z,25.88
2022-08-17T06:40:02.894Z,25.63
2022-08-17T06:43:02.206Z,25.84
2022-08-17T06:44:50.796Z,25.67
2022-08-17T06:46:58.764Z,25.63
2022-08-17T06:49:08.003Z,25.61
2022-08-17T06:51:15.232Z,25.63
2022-08-17T06:53:22.472Z,25.66
2022-08-17T06:55:24.723Z,26.17
2022-08-17T06:57:28.527Z,26.25
2022-08-17T06:59:54.607Z,26.27
2022-08-17T07:01:56.606Z,26.36
2022-08-17T07:04:00.186Z,26.53
2022-08-17T07:06:15.735Z,27.19
2022-08-17T07:08:21.048Z,27.83
2022-08-17T07:10:21.961Z,27.82
2022-08-17T07:12:23.818Z,27.76
2022-08-17T07:14:33.741Z,27.63
2022-08-17T07:16:38.946Z,27.36
2022-08-17T07:18:38.714Z,26.52
2022-08-17T07:20:42.854Z,27.06
2022-08-17T07:22:59.318Z,27.34
2022-08-17T07:25:01.829Z,27.71
2022-08-17T07:27:12.683Z,27.68
2022-08-17T07:29:15.439Z,27.52
2022-08-17T07:31:17.216Z,27.38
2022-08-17T07:33:20.247Z,27.49
2022-08-17T07:35:23.335Z,27.48
2022-08-17T07:37:33.357Z,27.77
2022-08-17T07:39:31.663Z,27.68
2022-08-17T07:41:57.967Z,27.44
2022-08-17T07:43:53.018Z,27.52
2022-08-17T07:46:22.252Z,28.15
2022-08-17T07:48:22.819Z,29.27
2022-08-17T07:50:29.090Z,29.63
2022-08-17T07:52:50.672Z,30.11
2022-08-17T07:54:50.613Z,30.24
2022-08-17T07:56:50.936Z,30.79
2022-08-17T07:58:49.164Z,29.89
2022-08-17T08:00:47.911Z,29.62
2022-08-17T08:03:00.755Z,29.50
2022-08-17T08:05:03.118Z,29.90
2022-08-17T08:07:12.111Z,29.85
2022-08-17T08:09:28.744Z,29.56
2022-08-17T08:11:31.820Z,29.11
2022-08-17T08:13:32.449Z,29.16
2022-08-17T08:15:36.863Z,29.43
2022-08-17T08:17:37.035Z,29.81
2022-08-17T08:19:35.584Z,30.01
2022-08-17T08:21:41.884Z,30.14
2022-08-17T08:23:50.310Z,29.87
2022-08-17T08:25:59.566Z,30.40
2022-08-17T08:28:16.238Z,30.44
2022-08-17T08:30:19.589Z,30.41
2022-08-17T08:32:22.114Z,29.92
2022-08-17T08:34:44.988Z,29.24
2022-08-17T08:37:17.757Z,29.38
2022-08-17T08:39:24.713Z,29.88
2022-08-17T08:41:38.451Z,30.12
2022-08-17T08:43:39.281Z,30.77
2022-08-17T08:45:46.938Z,32.08
2022-08-17T08:48:22.924Z,33.17
2022-08-17T08:50:37.949Z,34.66
2022-08-17T08:53:05.038Z,34.99
2022-08-17T08:55:13.477Z,35.75
2022-08-17T08:57:32.797Z,36.30
2022-08-17T08:59:44.262Z,36.69
2022-08-17T09:01:52.482Z,36.60
2022-08-17T09:04:28.793Z,37.19
2022-08-17T09:06:45.154Z,37.37
2022-08-17T09:09:03.369Z,37.80
2022-08-17T09:11:11.730Z,37.33
2022-08-17T09:13:20.950Z,37.33
2022-08-17T09:15:25.758Z,37.37
2022-08-17T09:17:36.365Z,37.11
2022-08-17T09:19:43.067Z,36.75
2022-08-17T09:21:48.360Z,37.14
2022-08-17T09:23:59.949Z,38.58
2022-08-17T09:26:03.689Z,39.17
2022-08-17T09:28:07.818Z,38.72
2022-08-17T09:30:12.209Z,37.66
2022-08-17T09:32:18.767Z,38.12
2022-08-17T09:34:33.047Z,38.21
2022-08-17T09:36:38.713Z,38.04
2022-08-17T09:38:44.545Z,36.99
2022-08-17T09:40:51.768Z,36.84
2022-08-17T09:42:53.565Z,37.53
2022-08-17T09:45:04.096Z,38.61
2022-08-17T09:47:11.159Z,36.97
2022-08-17T09:49:15.120Z,37.99
2022-08-17T09:51:19.618Z,38.09
2022-08-17T09:53:17.798Z,38.04
2022-08-17T09:55:16.204Z,38.59
2022-08-17T09:57:35.617Z,38.92
2022-08-17T09:59:52.109Z,38.98
2022-08-17T10:02:02.057Z,38.86
2022-08-17T10:04:29.335Z,39.02
2022-08-17T10:06:33.746Z,38.61
2022-08-17T10:08:41.889Z,38.74
2022-08-17T10:10:52.495Z,39.09
2022-08-17T10:13:05.366Z,38.93
2022-08-17T10:15:24.768Z,38.37
2022-08-17T10:17:29.430Z,38.72
2022-08-17T10:19:35.732Z,38.50
2022-08-17T10:22:00.580Z,38.93
2022-08-17T10:24:26.111Z,38.34
2022-08-17T10:26:27.399Z,38.36
2022-08-17T10:28:47.226Z,38.44
2022-08-17T10:30:51.487Z,38.51
2022-08-17T10:32:56.205Z,38.65
2022-08-17T10:35:14.678Z,39.32
2022-08-17T10:37:38.366Z,38.43
2022-08-17T10:39:52.043Z,38.23
2022-08-17T10:41:56.432Z,38.78
2022-08-17T10:44:38.164Z,37.81
2022-08-17T10:46:31.102Z,37.73
2022-08-17T10:48:36.598Z,37.66
2022-08-17T10:50:49.768Z,38.06
2022-08-17T10:52:52.260Z,36.37
2022-08-17T10:55:06.345Z,35.66
2022-08-17T10:57:24.689Z,34.61
2022-08-17T10:59:50.484Z,34.26
2022-08-17T11:02:15.407Z,34.00
2022-08-17T11:04:32.653Z,33.62
2022-08-17T11:06:41.976Z,33.58
2022-08-17T11:09:19.996Z,32.60
2022-08-17T11:11:45.554Z,32.59
2022-08-17T11:13:53.288Z,32.99
2022-08-17T11:16:07.789Z,32.69
2022-08-17T11:18:22.380Z,32.97
2022-08-17T11:20:41.421Z,33.13
2022-08-17T11:23:10.976Z,33.03
2022-08-17T11:25:16.803Z,33.07
2022-08-17T11:27:26.064Z,32.30
2022-08-17T11:29:28.027Z,31.50
2022-08-17T11:31:37.899Z,31.41
2022-08-17T11:33:57.883Z,31.21
2022-08-17T11:36:07.754Z,30.92
2022-08-17T11:38:21.143Z,30.84
2022-08-17T11:40:47.584Z,30.67
2022-08-17T11:43:04.624Z,30.72
2022-08-17T11:45:32.557Z,30.60
2022-08-17T11:48:26.562Z,29.69
2022-08-17T11:50:51.441Z,29.66
2022-08-17T11:52:51.935Z,29.93
2022-08-17T11:54:51.004Z,29.84
2022-08-17T11:56:51.950Z,30.08
2022-08-17T11:58:50.149Z,30.38
2022-08-17T12:00:52.592Z,30.42
2022-08-17T12:03:28.670Z,30.51
2022-08-17T12:05:34.154Z,30.00
2022-08-17T12:07:34.485Z,29.84
2022-08-17T12:09:39.405Z,29.89
2022-08-17T12:11:58.767Z,29.12
2022-08-17T12:14:02.759Z,29.24
2022-08-17T12:16:01.627Z,29.32
2022-08-17T12:18:00.294Z,29.06
2022-08-17T12:20:12.578Z,29.05
2022-08-17T12:22:18.929Z,29.30
2022-08-17T12:24:31.525Z,29.39
2022-08-17T12:26:35.470Z,29.75
2022-08-17T12:28:40.309Z,29.99
2022-08-17T12:30:39.162Z,30.21
2022-08-17T12:32:40.743Z,30.34
2022-08-17T12:34:44.524Z,30.05
2022-08-17T12:36:42.988Z,30.29
2022-08-17T12:38:42.127Z,30.66
2022-08-17T12:40:40.551Z,30.97
2022-08-17T12:42:41.687Z,30.85
2022-08-17T12:44:50.415Z,30.72
2022-08-17T12:46:54.556Z,30.50
2022-08-17T12:48:59.280Z,30.25
2022-08-17T12:51:02.202Z,30.02
2022-08-17T12:53:02.704Z,29.89
2022-08-17T12:55:02.841Z,29.81
2022-08-17T12:57:07.227Z,29.76
2022-08-17T12:59:12.341Z,29.88
2022-08-17T13:01:18.040Z,29.95
2022-08-17T13:03:19.396Z,29.95
2022-08-17T13:05:23.034Z,29.99
2022-08-17T13:07:33.387Z,29.58
2022-08-17T13:09:40.154Z,29.64
2022-08-17T13:11:48.945Z,29.82
2022-08-17T13:13:50.951Z,29.89
2022-08-17T13:15:56.651Z,29.89
2022-08-17T13:18:01.267Z,29.80
2022-08-17T13:20:00.025Z,29.83
2022-08-17T13:22:04.244Z,29.82
2022-08-17T13:24:05.096Z,29.84
2022-08-17T13:26:08.008Z,29.66
2022-08-17T13:28:06.323Z,29.94
2022-08-17T13:30:11.775Z,30.23
2022-08-17T13:32:23.035Z,30.25
2022-08-17T13:34:44.541Z,30.03
2022-08-17T13:37:35.227Z,30.23
2022-08-17T13:39:43.212Z,30.18
2022-08-17T13:41:41.483Z,30.12
2022-08-17T13:43:50.745Z,30.06
2022-08-17T13:45:52.329Z,30.17
2022-08-17T13:48:41.317Z,30.04
2022-08-17T13:50:43.744Z,29.80
2022-08-17T13:52:48.786Z,29.61
2022-08-17T13:54:53.240Z,29.48
2022-08-17T13:57:01.057Z,29.44
2022-08-17T13:59:03.548Z,29.33
2022-08-17T14:01:29.274Z,29.36
2022-08-17T14:03:30.644Z,29.41
2022-08-17T14:05:29.642Z,29.31
2022-08-17T14:07:36.626Z,29.32
2022-08-17T14:09:37.700Z,29.40
2022-08-17T14:11:36.899Z,29.19
2022-08-17T14:13:35.602Z,29.08
2022-08-17T14:15:55.792Z,28.99
2022-08-17T14:17:57.833Z,28.87
2022-08-17T14:19:57.568Z,28.96
2022-08-17T14:21:56.590Z,28.94
2022-08-17T14:23:56.422Z,28.88
2022-08-17T14:25:55.152Z,28.96
2022-08-17T14:27:54.197Z,29.07
2022-08-17T14:29:53.370Z,29.04
2022-08-17T14:31:54.124Z,29.00
2022-08-17T14:33:53.182Z,28.95
2022-08-17T14:35:53.657Z,29.01
2022-08-17T14:37:53.113Z,29.00
2022-08-17T14:39:55.916Z,28.97
2022-08-17T14:41:54.403Z,28.89
2022-08-17T14:43:53.505Z,28.86
2022-08-17T14:45:52.017Z,28.91
2022-08-17T14:47:50.409Z,28.89
2022-08-17T14:49:49.417Z,28.85
2022-08-17T14:51:48.512Z,28.80
2022-08-17T14:53:46.982Z,28.74
2022-08-17T14:55:47.423Z,28.77
2022-08-17T14:57:47.085Z,28.72
2022-08-17T14:59:45.583Z,28.74
2022-08-17T15:01:44.309Z,28.72
2022-08-17T15:03:43.499Z,28.73
2022-08-17T15:05:44.313Z,28.65
2022-08-17T15:07:42.456Z,28.59
2022-08-17T15:09:40.746Z,28.62
2022-08-17T15:11:40.799Z,28.60
2022-08-17T15:13:52.555Z,28.63
2022-08-17T15:15:52.824Z,28.65
2022-08-17T15:17:51.735Z,28.65
2022-08-17T15:19:50.607Z,28.62
2022-08-17T15:21:48.881Z,28.58
2022-08-17T15:23:47.856Z,28.53
2022-08-17T15:25:47.770Z,28.60
2022-08-17T15:27:47.688Z,28.63
2022-08-17T15:29:46.124Z,28.65
2022-08-17T15:31:44.728Z,28.61
2022-08-17T15:33:43.071Z,28.62
2022-08-17T15:35:42.864Z,28.62
2022-08-17T15:37:42.117Z,28.65
2022-08-17T15:39:40.395Z,28.69
2022-08-17T15:41:38.645Z,28.72
2022-08-17T15:43:38.341Z,28.77
2022-08-17T15:45:36.767Z,28.79
2022-08-17T15:47:35.030Z,28.72
2022-08-17T15:49:33.530Z,28.67
2022-08-17T15:51:34.411Z,28.68
2022-08-17T15:53:32.717Z,28.66
2022-08-17T15:55:32.758Z,28.67
2022-08-17T15:57:31.024Z,28.63
2022-08-17T15:59:31.113Z,28.58
2022-08-17T16:03:15.344Z,28.52
2022-08-17T16:04:04.213Z,28.44
2022-08-17T16:06:07.894Z,28.59
2022-08-17T16:08:08.155Z,28.51
2022-08-17T16:10:07.906Z,28.40
2022-08-17T16:12:14.034Z,28.33
2022-08-17T16:14:12.213Z,28.21
2022-08-17T16:16:14.928Z,28.11
2022-08-17T16:18:19.039Z,28.05
2022-08-17T16:20:20.439Z,27.97
2022-08-17T16:22:29.821Z,27.90
2022-08-17T16:24:28.425Z,27.88
2022-08-17T16:26:26.966Z,27.84
2022-08-17T16:28:35.589Z,27.82
2022-08-17T16:30:34.873Z,27.84
2022-08-17T16:32:37.732Z,27.78
2022-08-17T16:34:35.951Z,27.75
2022-08-17T16:36:34.547Z,27.67
2022-08-17T16:38:34.175Z,27.61
2022-08-17T16:40:35.700Z,27.57
2022-08-17T16:42:37.071Z,27.52
2022-08-17T16:44:35.996Z,27.46
2022-08-17T16:46:34.325Z,27.47
2022-08-17T16:48:34.198Z,27.38
2022-08-17T16:50:33.901Z,27.29
2022-08-17T16:52:33.563Z,27.22
2022-08-17T16:54:32.038Z,27.18
2022-08-17T16:56:34.929Z,27.10
2022-08-17T16:58:33.256Z,27.01
2022-08-17T17:00:33.186Z,26.93
2022-08-17T17:02:33.914Z,26.92
2022-08-17T17:04:38.063Z,26.89
2022-08-17T17:06:43.854Z,26.80
2022-08-17T17:08:48.478Z,26.74
2022-08-17T17:10:50.191Z,26.68
2022-08-17T17:13:02.427Z,26.59
2022-08-17T17:15:02.770Z,26.52
2022-08-17T17:17:06.512Z,26.49
2022-08-17T17:19:11.229Z,26.43
2022-08-17T17:21:15.692Z,26.35
2022-08-17T17:23:30.090Z,26.28
2022-08-17T17:25:31.996Z,26.28
2022-08-17T17:27:38.259Z,26.23
2022-08-17T17:29:47.438Z,26.15
2022-08-17T17:32:07.575Z,26.09
2022-08-17T17:34:08.859Z,26.00
2022-08-17T17:36:14.299Z,25.91
2022-08-17T17:38:20.122Z,25.84
2022-08-17T17:40:23.197Z,25.80
2022-08-17T17:42:24.906Z,25.77
2022-08-17T17:44:28.827Z,25.67
2022-08-17T17:46:33.573Z,25.59
2022-08-17T17:48:31.992Z,25.53
2022-08-17T17:50:35.783Z,25.47
2022-08-17T17:52:40.751Z,25.46
2022-08-17T17:54:57.886Z,25.46
2022-08-17T17:57:05.843Z,25.47
2022-08-17T17:59:13.451Z,25.40
2022-08-17T18:01:21.117Z,25.26
2022-08-17T18:03:32.252Z,25.21
2022-08-17T18:06:05.224Z,25.16
2022-08-17T18:08:16.603Z,25.13
2022-08-17T18:10:30.141Z,25.06
2022-08-17T18:12:39.807Z,24.99
2022-08-17T18:15:04.215Z,24.98
2022-08-17T18:17:02.490Z,24.89
2022-08-17T18:19:01.905Z,24.87
2022-08-17T18:21:07.625Z,24.77
2022-08-17T18:23:06.094Z,24.76
2022-08-17T18:25:43.577Z,24.71
2022-08-17T18:27:51.929Z,24.70
2022-08-17T18:29:52.828Z,24.63
2022-08-17T18:32:16.202Z,24.64
2022-08-17T18:34:45.982Z,24.56
2022-08-17T18:36:43.476Z,24.49
2022-08-17T18:38:43.864Z,24.49
2022-08-17T18:40:43.865Z,24.45
2022-08-17T18:42:42.755Z,24.44
2022-08-17T18:44:45.209Z,24.45
2022-08-17T18:46:43.583Z,24.45
2022-08-17T18:48:53.639Z,24.42
2022-08-17T18:51:00.620Z,24.40
2022-08-17T18:53:20.838Z,24.36
2022-08-17T18:55:28.512Z,24.32
2022-08-17T18:57:32.690Z,24.26
2022-08-17T18:59:39.015Z,24.24
2022-08-17T19:01:54.513Z,24.16
2022-08-17T19:03:53.718Z,24.06
2022-08-17T19:05:54.822Z,24.06
2022-08-17T19:07:53.317Z,24.02
2022-08-17T19:09:57.041Z,23.94
2022-08-17T19:11:55.445Z,23.90
2022-08-17T19:14:01.585Z,23.84
2022-08-17T19:16:14.642Z,23.84
2022-08-17T19:18:19.758Z,23.80
2022-08-17T19:20:22.887Z,23.81
2022-08-17T19:22:28.619Z,23.79
2022-08-17T19:24:32.760Z,23.80
2022-08-17T19:26:53.586Z,23.78
2022-08-17T19:29:00.862Z,23.73
2022-08-17T19:31:04.228Z,23.61
2022-08-17T19:33:03.601Z,23.52
2022-08-17T19:35:03.024Z,23.43
2022-08-17T19:37:07.114Z,23.34
2022-08-17T19:39:12.257Z,23.37
2022-08-17T19:41:20.572Z,23.42
2022-08-17T19:43:27.899Z,23.45
2022-08-17T19:45:40.078Z,23.47
2022-08-17T19:48:04.987Z,23.41
2022-08-17T19:50:09.853Z,23.41
2022-08-17T19:52:40.628Z,23.40
2022-08-17T19:54:47.393Z,23.28
2022-08-17T19:56:56.720Z,23.19
2022-08-17T19:59:10.574Z,23.18
2022-08-17T20:01:13.138Z,23.15
2022-08-17T20:03:16.903Z,23.07
2022-08-17T20:05:21.603Z,23.03
2022-08-17T20:07:23.498Z,23.16
2022-08-17T20:09:35.564Z,23.12
2022-08-17T20:11:41.428Z,23.14
2022-08-17T20:13:46.659Z,23.07
2022-08-17T20:15:45.884Z,22.99
2022-08-17T20:17:48.263Z,23.02
2022-08-17T20:19:53.394Z,22.96
2022-08-17T20:22:00.042Z,22.92
2022-08-17T20:24:06.496Z,22.97
2022-08-17T20:26:18.507Z,22.92
2022-08-17T20:28:23.540Z,22.94
2022-08-17T20:30:38.455Z,22.95
2022-08-17T20:32:50.297Z,22.87
2022-08-17T20:34:50.115Z,22.80
2022-08-17T20:37:00.882Z,22.84
2022-08-17T20:39:01.204Z,22.71
2022-08-17T20:41:20.879Z,22.76
2022-08-17T20:43:52.260Z,22.63
2022-08-17T20:46:12.796Z,22.61
2022-08-17T20:48:37.361Z,22.52
2022-08-17T20:50:43.521Z,22.58
2022-08-17T20:52:51.480Z,22.58
2022-08-17T20:54:52.754Z,22.58
2022-08-17T20:56:57.372Z,22.62
2022-08-17T20:58:56.529Z,22.61
2022-08-17T21:01:20.323Z,22.54
2022-08-17T21:04:01.374Z,22.48
2022-08-17T21:06:16.829Z,22.53
2022-08-17T21:08:18.374Z,22.49
2022-08-17T21:10:20.115Z,22.52
2022-08-17T21:12:42.549Z,22.47
2022-08-17T21:14:59.845Z,22.48
2022-08-17T21:17:17.575Z,22.40
2022-08-17T21:19:44.412Z,22.39
2022-08-17T21:22:07.490Z,22.37
2022-08-17T21:24:20.435Z,22.37
2022-08-17T21:26:31.185Z,22.30
2022-08-17T21:29:00.242Z,22.34
2022-08-17T21:31:02.610Z,22.32
2022-08-17T21:33:20.078Z,22.29
2022-08-17T21:35:47.368Z,22.27
2022-08-17T21:37:48.963Z,22.30
2022-08-17T21:39:51.915Z,22.17
2022-08-17T21:41:53.952Z,22.05
2022-08-17T21:43:56.777Z,22.05
2022-08-17T21:45:58.247Z,22.06
2022-08-17T21:48:14.225Z,21.97
2022-08-17T21:50:19.422Z,21.85
2022-08-17T21:52:21.331Z,21.82
2022-08-17T21:54:31.898Z,21.90
2022-08-17T21:56:32.724Z,21.91
2022-08-17T21:58:34.912Z,21.88
2022-08-17T22:00:34.222Z,21.87
2022-08-17T22:02:35.189Z,21.81
2022-08-17T22:04:35.640Z,21.71
2022-08-17T22:06:39.789Z,21.77
2022-08-17T22:08:38.222Z,21.70
2022-08-17T22:10:40.918Z,21.69
2022-08-17T22:12:42.732Z,21.69
2022-08-17T22:14:52.576Z,21.67
2022-08-17T22:17:08.313Z,21.69
2022-08-17T22:19:06.740Z,21.60
2022-08-17T22:21:07.257Z,21.54
2022-08-17T22:23:31.137Z,21.51
2022-08-17T22:25:31.175Z,21.51
2022-08-17T22:27:56.487Z,21.34
2022-08-17T22:29:58.140Z,21.18
2022-08-17T22:31:57.628Z,21.19
2022-08-17T22:34:11.150Z,21.28
2022-08-17T22:36:12.517Z,21.23
2022-08-17T22:38:33.436Z,21.19
2022-08-17T22:40:33.808Z,21.16
2022-08-17T22:42:32.997Z,20.96
2022-08-17T22:44:35.647Z,20.92
2022-08-17T22:46:39.755Z,20.98
2022-08-17T22:48:39.046Z,21.02
2022-08-17T22:50:37.523Z,21.09
2022-08-17T22:52:59.546Z,21.17
2022-08-17T22:55:36.545Z,21.21
2022-08-17T22:58:08.193Z,21.23
2022-08-17T23:00:29.542Z,21.11
2022-08-17T23:02:29.505Z,21.01
2022-08-17T23:04:34.238Z,21.07
2022-08-17T23:06:33.989Z,21.11
2022-08-17T23:08:35.542Z,21.05
2022-08-17T23:10:36.012Z,21.06
2022-08-17T23:12:38.220Z,20.95
2022-08-17T23:14:45.414Z,20.79
2022-08-17T23:16:49.351Z,20.82
2022-08-17T23:18:48.014Z,20.79
2022-08-17T23:20:46.863Z,20.77
2022-08-17T23:22:51.747Z,20.74
2022-08-17T23:24:50.875Z,20.70
2022-08-17T23:26:49.149Z,20.70
2022-08-17T23:28:47.832Z,20.73
2022-08-17T23:30:48.612Z,20.71
2022-08-17T23:32:53.623Z,20.48
2022-08-17T23:34:52.624Z,20.37
2022-08-17T23:36:53.127Z,20.52
2022-08-17T23:38:53.649Z,20.56
2022-08-17T23:40:51.960Z,20.36
2022-08-17T23:42:50.962Z,20.25
2022-08-17T23:44:49.509Z,20.39
2022-08-17T23:46:47.720Z,20.34
2022-08-17T23:48:47.789Z,20.42
2022-08-17T23:50:46.042Z,20.32
2022-08-17T23:52:46.759Z,20.17
2022-08-17T23:54:48.591Z,20.15
2022-08-17T23:56:46.968Z,20.14
2022-08-17T23:58:45.924Z,20.12
